Terminal Aerodrome Forecast
Issued by NWS

Home | Current Version | Previous Version | Text Only | Print | Product List | Glossary On
Versions: 1 2 3 4 5 6 7 8 9 10 11 12 13 14 15 16
000
FTUS41 KRNK 220541
TAFLWB
TAF
KLWB 220541Z 2206/2306 00000KT P6SM BKN250
      TEMPO 2209/2213 2SM BR
     FM221500 VRB05KT P6SM BKN250=

USA.gov is the U.S. government's official web portal to all federal, state and local government web resources and services.